Terminal Aerodrome Forecast
Issued by NWS Duluth, MN

Home | Current Version | Previous Version | Text Only | Print | Product List | Glossary On
Versions: 1 2 3 4 5 6 7 8 9 10 11 12 13 14 15 16 17 18
417
FTUS43 KDLH 190405 AAB
TAFDLH
TAF AMD
KDLH 190405Z 1904/1924 32011G17KT P6SM -SN BKN022
     FM190700 30011KT P6SM SCT025
     FM191700 27008KT P6SM VCSH SCT025 BKN050
     FM192100 24009KT P6SM BKN060=

USA.gov is the U.S. government's official web portal to all federal, state and local government web resources and services.